Time;durP1;ratioP1;P1;durP2;ratioP2;P2;SDS_P1;SDS_P2;PMS_P1;PMS_P2;Temp;Humidity;BMP_temperature;BMP_pressure;BME280_temperature;BME280_humidity;BME280_pressure;Samples;Min_cycle;Max_cycle;Signal;HPM_P1;HPM_P2
2023/04/10 00:02:04;;;;;;;;;;;;;;;;;;5044667;28;43026;-82
2023/04/10 00:04:30;;;;;;;;;;;;;;;;;;5043270;28;43682;-81
2023/04/10 00:06:56;;;;;;;;;;;;;;;;;;5044447;28;43191;-81
2023/04/10 00:09:22;;;;;;;;;;;;;;;;;;5044491;28;43671;-81
2023/04/10 00:11:47;;;;;;;;;;;;;;;;;;5044470;28;43040;-82
2023/04/10 00:14:13;;;;;;;;;;;;;;;;;;5040557;28;43387;-83
2023/04/10 00:16:39;;;;;;;;;;;;;;;;;;5025355;28;43220;-82
2023/04/10 00:19:06;;;;;;;;;;;;;;;;;;5024719;28;43495;-82
2023/04/10 00:21:32;;;;;;;;;;;;;;;;;;5025314;28;42930;-82
2023/04/10 00:23:58;;;;;;;;;;;;;;;;;;5039118;28;43574;-76
2023/04/10 00:26:25;;;;;;;;;;;;;;;;;;5044835;28;43024;-75
2023/04/10 00:28:51;;;;;;;;;;;;;;;;;;5042920;28;43062;-76
2023/04/10 00:31:17;;;;;;;;;;;;;;;;;;5036513;28;42896;-75
2023/04/10 00:33:43;;;;;;;;;;;;;;;;;;5026610;28;42926;-75
2023/04/10 00:36:09;;;;;;;;;;;;;;;;;;5018378;28;42985;-78
2023/04/10 00:38:36;;;;;;;;;;;;;;;;;;5040085;28;42993;-81
2023/04/10 00:41:02;;;;;;;;;;;;;;;;;;5025455;28;42751;-82
2023/04/10 00:43:28;;;;;;;;;;;;;;;;;;5007577;28;43815;-81
2023/04/10 00:45:54;;;;;;;;;;;;;;;;;;5025235;28;42972;-82
2023/04/10 00:48:20;;;;;;;;;;;;;;;;;;5026174;28;43957;-83
2023/04/10 00:50:46;;;;;;;;;;;;;;;;;;5038101;28;42963;-84
2023/04/10 00:53:12;;;;;;;;;;;;;;;;;;5024933;28;43495;-81
2023/04/10 00:55:38;;;;;;;;;;;;;;;;;;5031671;28;42880;-83
2023/04/10 00:58:04;;;;;;;;;;;;;;;;;;5031719;28;43636;-77
2023/04/10 01:00:30;;;;;;;;;;;;;;;;;;5038051;28;42900;-76
2023/04/10 01:02:55;;;;;;;;;;;;;;;;;;5024849;28;43417;-75
2023/04/10 01:05:21;;;;;;;;;;;;;;;;;;5025284;28;43029;-77
2023/04/10 01:07:47;;;;;;;;;;;;;;;;;;5024976;28;42975;-79
2023/04/10 01:10:13;;;;;;;;;;;;;;;;;;5024856;28;43055;-76
2023/04/10 01:12:39;;;;;;;;;;;;;;;;;;5024282;28;43916;-76
2023/04/10 01:15:05;;;;;;;;;;;;;;;;;;5024569;28;42998;-75
2023/04/10 01:17:31;;;;;;;;;;;;;;;;;;5022963;28;43702;-76
2023/04/10 01:19:59;;;;;;;;;;;;;;;;;;5024938;28;42998;-76
2023/04/10 01:22:25;;;;;;;;;;;;;;;;;;5024468;28;43587;-77
2023/04/10 01:24:51;;;;;;;;;;;;;;;;;;5031712;28;42855;-75
2023/04/10 01:27:17;;;;;;;;;;;;;;;;;;5043840;28;43691;-77
2023/04/10 01:29:43;;;;;;;;;;;;;;;;;;5032678;28;42972;-77
2023/04/10 01:32:08;;;;;;;;;;;;;;;;;;5041783;28;43934;-76
2023/04/10 01:34:35;;;;;;;;;;;;;;;;;;5032807;28;43643;-78
2023/04/10 01:37:01;;;;;;;;;;;;;;;;;;5041600;28;42998;-77
2023/04/10 01:39:27;;;;;;;;;;;;;;;;;;5032312;28;43090;-78
2023/04/10 01:41:53;;;;;;;;;;;;;;;;;;5024004;28;43397;-78
2023/04/10 01:44:19;;;;;;;;;;;;;;;;;;5006789;28;42992;-77
2023/04/10 01:46:45;;;;;;;;;;;;;;;;;;5024557;28;43051;-77
2023/04/10 01:49:10;;;;;;;;;;;;;;;;;;5024129;28;43323;-78
2023/04/10 01:51:36;;;;;;;;;;;;;;;;;;5023604;28;43596;-77
2023/04/10 01:54:02;;;;;;;;;;;;;;;;;;5024176;28;42887;-79
2023/04/10 01:56:28;;;;;;;;;;;;;;;;;;5024552;28;43939;-78
2023/04/10 01:58:54;;;;;;;;;;;;;;;;;;5024262;28;42905;-76
2023/04/10 02:01:20;;;;;;;;;;;;;;;;;;5021671;28;43015;-77
2023/04/10 02:03:46;;;;;;;;;;;;;;;;;;5023471;28;43172;-77
2023/04/10 02:06:12;;;;;;;;;;;;;;;;;;5022932;28;43340;-77
2023/04/10 02:08:38;;;;;;;;;;;;;;;;;;5024141;28;42993;-77
2023/04/10 02:11:04;;;;;;;;;;;;;;;;;;5023743;28;43002;-77
2023/04/10 02:13:30;;;;;;;;;;;;;;;;;;5024331;28;42890;-78
2023/04/10 02:15:57;;;;;;;;;;;;;;;;;;5023593;28;44409;-78
2023/04/10 02:18:23;;;;;;;;;;;;;;;;;;5023808;28;42900;-76
2023/04/10 02:20:49;;;;;;;;;;;;;;;;;;5021664;28;42885;-76
2023/04/10 02:23:15;;;;;;;;;;;;;;;;;;5024409;28;42893;-76
2023/04/10 02:25:41;;;;;;;;;;;;;;;;;;5023983;28;43052;-77
2023/04/10 02:28:07;;;;;;;;;;;;;;;;;;5023865;28;42992;-76
2023/04/10 02:30:32;;;;;;;;;;;;;;;;;;4992423;28;43823;-77
2023/04/10 02:32:58;;;;;;;;;;;;;;;;;;5018770;28;42939;-76
2023/04/10 02:35:25;;;;;;;;;;;;;;;;;;5026977;28;43752;-78
2023/04/10 02:37:51;;;;;;;;;;;;;;;;;;5027192;28;43060;-77
2023/04/10 02:40:17;;;;;;;;;;;;;;;;;;5027027;28;43035;-77
2023/04/10 02:42:43;;;;;;;;;;;;;;;;;;5027445;28;42950;-77
2023/04/10 02:45:09;;;;;;;;;;;;;;;;;;5026809;28;43520;-77
2023/04/10 02:47:35;;;;;;;;;;;;;;;;;;5026486;28;42977;-77
2023/04/10 02:50:00;;;;;;;;;;;;;;;;;;5026067;28;43026;-77
2023/04/10 02:52:26;;;;;;;;;;;;;;;;;;5026991;28;43036;-78
2023/04/10 02:54:52;;;;;;;;;;;;;;;;;;5024191;28;42989;-78
2023/04/10 02:57:18;;;;;;;;;;;;;;;;;;5026616;28;42994;-78
2023/04/10 02:59:44;;;;;;;;;;;;;;;;;;5027006;28;43520;-78
2023/04/10 03:02:10;;;;;;;;;;;;;;;;;;5027065;28;42802;-77
2023/04/10 03:04:36;;;;;;;;;;;;;;;;;;5026276;28;42890;-79
2023/04/10 03:07:02;;;;;;;;;;;;;;;;;;5027234;28;42926;-79
2023/04/10 03:09:28;;;;;;;;;;;;;;;;;;5026651;28;42727;-77
2023/04/10 03:11:53;;;;;;;;;;;;;;;;;;5008294;28;43030;-76
2023/04/10 03:14:19;;;;;;;;;;;;;;;;;;5006947;28;43083;-77
2023/04/10 03:16:46;;;;;;;;;;;;;;;;;;5006798;28;42998;-78
2023/04/10 03:19:12;;;;;;;;;;;;;;;;;;5006834;28;44070;-77
2023/04/10 03:21:38;;;;;;;;;;;;;;;;;;5007751;28;42745;-77
2023/04/10 03:24:04;;;;;;;;;;;;;;;;;;5007284;28;42944;-78
2023/04/10 03:26:30;;;;;;;;;;;;;;;;;;5008121;28;43086;-82
2023/04/10 03:28:56;;;;;;;;;;;;;;;;;;5013314;28;43734;-83
2023/04/10 03:31:22;;;;;;;;;;;;;;;;;;5026752;28;43189;-83
2023/04/10 03:33:48;;;;;;;;;;;;;;;;;;5026459;28;42881;-83
2023/04/10 03:36:14;;;;;;;;;;;;;;;;;;5008047;28;42970;-83
2023/04/10 03:38:40;;;;;;;;;;;;;;;;;;5026245;28;43823;-82
2023/04/10 03:41:06;;;;;;;;;;;;;;;;;;5025699;28;43024;-78
2023/04/10 03:43:31;;;;;;;;;;;;;;;;;;4988715;28;45293;-83
2023/04/10 03:45:57;;;;;;;;;;;;;;;;;;5006929;28;43307;-83
2023/04/10 03:48:26;;;;;;;;;;;;;;;;;;5006465;28;43427;-78
2023/04/10 03:50:52;;;;;;;;;;;;;;;;;;5019189;28;43008;-77
2023/04/10 03:53:18;;;;;;;;;;;;;;;;;;5018909;28;43642;-77
2023/04/10 03:55:44;;;;;;;;;;;;;;;;;;5005930;28;43036;-76
2023/04/10 03:58:11;;;;;;;;;;;;;;;;;;5018816;28;43561;-76
2023/04/10 04:00:37;;;;;;;;;;;;;;;;;;5006936;28;42954;-76
2023/04/10 04:03:03;;;;;;;;;;;;;;;;;;5012689;28;43052;-76
2023/04/10 04:05:29;;;;;;;;;;;;;;;;;;5026184;28;43018;-77
2023/04/10 04:07:55;;;;;;;;;;;;;;;;;;5044673;28;43091;-76
2023/04/10 04:10:22;;;;;;;;;;;;;;;;;;5045497;28;43055;-76
2023/04/10 04:12:48;;;;;;;;;;;;;;;;;;5045241;28;42912;-76
2023/04/10 04:15:14;;;;;;;;;;;;;;;;;;5045962;28;43200;-76
2023/04/10 04:17:40;;;;;;;;;;;;;;;;;;5008473;28;43538;-76
2023/04/10 04:20:06;;;;;;;;;;;;;;;;;;5039193;28;42952;-75
2023/04/10 04:22:32;;;;;;;;;;;;;;;;;;5045727;28;43645;-76
2023/04/10 04:24:58;;;;;;;;;;;;;;;;;;5044895;28;42801;-77
2023/04/10 04:27:24;;;;;;;;;;;;;;;;;;5026256;28;42953;-77
2023/04/10 04:29:49;;;;;;;;;;;;;;;;;;5044201;28;42943;-77
2023/04/10 04:32:15;;;;;;;;;;;;;;;;;;5043684;28;43032;-76
2023/04/10 04:34:41;;;;;;;;;;;;;;;;;;5043442;28;42920;-77
2023/04/10 04:37:07;;;;;;;;;;;;;;;;;;5043200;28;44102;-77
2023/04/10 04:39:33;;;;;;;;;;;;;;;;;;5044279;28;42921;-76
2023/04/10 04:42:00;;;;;;;;;;;;;;;;;;5025681;28;44933;-78
2023/04/10 04:44:26;;;;;;;;;;;;;;;;;;5043532;28;42872;-76
2023/04/10 04:46:52;;;;;;;;;;;;;;;;;;5042849;28;43988;-76
2023/04/10 04:49:17;;;;;;;;;;;;;;;;;;5037720;28;42974;-76
2023/04/10 04:51:43;;;;;;;;;;;;;;;;;;5039765;28;42982;-76
2023/04/10 04:54:09;;;;;;;;;;;;;;;;;;5041273;28;42880;-82
2023/04/10 04:56:35;;;;;;;;;;;;;;;;;;5040303;28;43212;-81
2023/04/10 04:59:01;;;;;;;;;;;;;;;;;;5036329;28;43162;-89
2023/04/10 05:01:27;;;;;;;;;;;;;;;;;;5039091;28;44662;-92
2023/04/10 05:03:53;;;;;;;;;;;;;;;;;;5024698;28;42889;-91
2023/04/10 05:06:19;;;;;;;;;;;;;;;;;;5038242;28;43978;-90
2023/04/10 05:08:45;;;;;;;;;;;;;;;;;;5032282;28;42944;-90
2023/04/10 05:11:11;;;;;;;;;;;;;;;;;;5044538;28;43145;-91
2023/04/10 05:13:37;;;;;;;;;;;;;;;;;;5026941;28;42882;-91
2023/04/10 05:16:03;;;;;;;;;;;;;;;;;;5044168;28;43352;-91
2023/04/10 05:18:28;;;;;;;;;;;;;;;;;;5032222;28;42961;-91
2023/04/10 05:20:54;;;;;;;;;;;;;;;;;;5043956;28;43918;-83
2023/04/10 05:23:20;;;;;;;;;;;;;;;;;;5039286;28;42984;-91
2023/04/10 05:25:46;;;;;;;;;;;;;;;;;;5040299;28;43854;-90
2023/04/10 05:28:12;;;;;;;;;;;;;;;;;;5029414;28;42771;-91
2023/04/10 05:30:38;;;;;;;;;;;;;;;;;;5033875;28;43098;-92
2023/04/10 05:33:04;;;;;;;;;;;;;;;;;;5040917;28;43300;-81
2023/04/10 05:35:30;;;;;;;;;;;;;;;;;;5038328;28;43542;-77
2023/04/10 05:37:57;;;;;;;;;;;;;;;;;;5039867;28;43643;-78
2023/04/10 05:40:23;;;;;;;;;;;;;;;;;;5036605;28;43411;-77
2023/04/10 05:42:49;;;;;;;;;;;;;;;;;;5036792;28;43011;-78
2023/04/10 05:45:17;;;;;;;;;;;;;;;;;;5034887;28;43055;-78
2023/04/10 05:47:43;;;;;;;;;;;;;;;;;;5041638;28;43055;-83
2023/04/10 05:50:09;;;;;;;;;;;;;;;;;;5028437;28;43078;-77
2023/04/10 05:52:34;;;;;;;;;;;;;;;;;;5033756;28;42991;-78
2023/04/10 05:55:01;;;;;;;;;;;;;;;;;;5040031;28;43442;-85
2023/04/10 05:57:28;;;;;;;;;;;;;;;;;;5033750;28;43239;-78
2023/04/10 05:59:54;;;;;;;;;;;;;;;;;;5032311;28;43518;-79
2023/04/10 06:02:20;;;;;;;;;;;;;;;;;;5036211;28;42912;-78
2023/04/10 06:04:46;;;;;;;;;;;;;;;;;;5033846;28;42833;-77
2023/04/10 06:07:12;;;;;;;;;;;;;;;;;;5041562;28;43039;-76
2023/04/10 06:09:38;;;;;;;;;;;;;;;;;;5033099;28;44270;-76
2023/04/10 06:12:04;;;;;;;;;;;;;;;;;;5042084;28;42916;-75
2023/04/10 06:14:30;;;;;;;;;;;;;;;;;;5040102;28;43060;-76
2023/04/10 06:16:56;;;;;;;;;;;;;;;;;;5032013;28;43213;-76
2023/04/10 06:19:21;;;;;;;;;;;;;;;;;;5031588;28;43008;-75
2023/04/10 06:21:47;;;;;;;;;;;;;;;;;;5037344;28;43030;-80
2023/04/10 06:24:14;;;;;;;;;;;;;;;;;;5040085;28;43042;-78
2023/04/10 06:26:40;;;;;;;;;;;;;;;;;;5040801;28;43288;-77
2023/04/10 06:29:06;;;;;;;;;;;;;;;;;;5041413;28;43456;-80
2023/04/10 06:31:32;;;;;;;;;;;;;;;;;;5040817;28;42979;-79
2023/04/10 06:33:58;;;;;;;;;;;;;;;;;;5010589;28;44162;-79
2023/04/10 06:36:25;;;;;;;;;;;;;;;;;;5032529;28;42910;-76
2023/04/10 06:38:51;;;;;;;;;;;;;;;;;;5032681;28;43039;-77
2023/04/10 06:41:17;;;;;;;;;;;;;;;;;;5030538;28;43120;-77
2023/04/10 06:43:44;;;;;;;;;;;;;;;;;;5031616;28;43010;-77
2023/04/10 06:46:10;;;;;;;;;;;;;;;;;;5040922;28;43070;-81
2023/04/10 06:48:36;;;;;;;;;;;;;;;;;;5041038;28;44066;-78
2023/04/10 06:51:02;;;;;;;;;;;;;;;;;;5034051;28;43288;-79
2023/04/10 06:53:28;;;;;;;;;;;;;;;;;;5039671;28;43800;-83
2023/04/10 06:55:55;;;;;;;;;;;;;;;;;;5029966;28;43043;-81
2023/04/10 06:58:21;;;;;;;;;;;;;;;;;;5015678;28;44540;-88
2023/04/10 07:00:47;;;;;;;;;;;;;;;;;;5012439;28;42957;-79
2023/04/10 07:03:13;;;;;;;;;;;;;;;;;;5033831;28;43040;-78
2023/04/10 07:05:39;;;;;;;;;;;;;;;;;;5028396;28;43242;-76
2023/04/10 07:08:05;;;;;;;;;;;;;;;;;;5023609;28;42888;-78
2023/04/10 07:10:31;;;;;;;;;;;;;;;;;;5018635;28;43518;-79
2023/04/10 07:12:57;;;;;;;;;;;;;;;;;;5006007;28;43638;-82
2023/04/10 07:15:23;;;;;;;;;;;;;;;;;;5015619;28;42928;-77
2023/04/10 07:17:49;;;;;;;;;;;;;;;;;;5017921;28;43015;-78
2023/04/10 07:20:15;;;;;;;;;;;;;;;;;;5017380;28;42995;-86
2023/04/10 07:22:41;;;;;;;;;;;;;;;;;;5015661;28;43662;-76
2023/04/10 07:25:07;;;;;;;;;;;;;;;;;;5008325;28;42977;-78
2023/04/10 07:27:33;;;;;;;;;;;;;;;;;;5024422;28;43031;-79
2023/04/10 07:29:59;;;;;;;;;;;;;;;;;;5025108;28;42969;-79
2023/04/10 07:32:25;;;;;;;;;;;;;;;;;;5019362;28;43379;-79
2023/04/10 07:34:51;;;;;;;;;;;;;;;;;;5019268;28;43518;-79
2023/04/10 07:37:17;;;;;;;;;;;;;;;;;;5013432;28;43381;-79
2023/04/10 07:39:43;;;;;;;;;;;;;;;;;;5012794;28;42996;-79
2023/04/10 07:42:09;;;;;;;;;;;;;;;;;;5009389;28;43008;-80
2023/04/10 07:44:35;;;;;;;;;;;;;;;;;;5020712;28;44155;-79
2023/04/10 07:47:01;;;;;;;;;;;;;;;;;;5008462;28;43014;-79
2023/04/10 07:49:26;;;;;;;;;;;;;;;;;;5010618;28;43024;-80
2023/04/10 07:51:52;;;;;;;;;;;;;;;;;;5019340;28;43361;-80
2023/04/10 07:54:18;;;;;;;;;;;;;;;;;;5025421;28;43008;-80
2023/04/10 07:56:44;;;;;;;;;;;;;;;;;;5024904;28;43583;-80
2023/04/10 07:59:10;;;;;;;;;;;;;;;;;;5017419;28;43071;-80
2023/04/10 08:01:36;;;;;;;;;;;;;;;;;;5015931;28;44025;-80
2023/04/10 08:04:02;;;;;;;;;;;;;;;;;;5009111;28;43259;-80
2023/04/10 08:06:28;;;;;;;;;;;;;;;;;;5017915;28;43773;-81
2023/04/10 08:08:54;;;;;;;;;;;;;;;;;;5020754;28;43049;-81
2023/04/10 08:11:20;;;;;;;;;;;;;;;;;;5015823;28;42971;-81
2023/04/10 08:13:46;;;;;;;;;;;;;;;;;;5017341;28;43029;-80
2023/04/10 08:16:12;;;;;;;;;;;;;;;;;;5013406;28;42913;-81
2023/04/10 08:18:38;;;;;;;;;;;;;;;;;;5007389;28;43076;-80
2023/04/10 08:21:04;;;;;;;;;;;;;;;;;;5007560;28;43986;-76
2023/04/10 08:23:30;;;;;;;;;;;;;;;;;;5012679;28;43085;-76
2023/04/10 08:25:56;;;;;;;;;;;;;;;;;;5014530;28;43602;-78
2023/04/10 08:28:22;;;;;;;;;;;;;;;;;;5012648;28;43752;-75
2023/04/10 08:30:48;;;;;;;;;;;;;;;;;;5014169;28;43810;-75
2023/04/10 08:33:14;;;;;;;;;;;;;;;;;;5016839;28;42997;-76
2023/04/10 08:35:40;;;;;;;;;;;;;;;;;;5024894;28;43474;-74
2023/04/10 08:38:06;;;;;;;;;;;;;;;;;;5022411;28;43020;-77
2023/04/10 08:40:32;;;;;;;;;;;;;;;;;;5016935;28;43361;-74
2023/04/10 08:42:57;;;;;;;;;;;;;;;;;;5010433;28;43083;-75
2023/04/10 08:45:23;;;;;;;;;;;;;;;;;;5011020;28;44159;-79
2023/04/10 08:47:52;;;;;;;;;;;;;;;;;;4994691;28;43083;-81
2023/04/10 08:50:31;;;;;;;;;;;;;;;;;;5010071;28;43146;-83
2023/04/10 08:53:00;;;;;;;;;;;;;;;;;;5012768;28;42945;-83
2023/04/10 08:55:26;;;;;;;;;;;;;;;;;;5016074;28;42945;-83
2023/04/10 08:57:51;;;;;;;;;;;;;;;;;;5013747;28;43169;-83
2023/04/10 09:00:17;;;;;;;;;;;;;;;;;;5019262;28;43906;-82
2023/04/10 09:02:43;;;;;;;;;;;;;;;;;;5010599;28;42893;-82
2023/04/10 09:05:09;;;;;;;;;;;;;;;;;;5025043;28;43175;-85
2023/04/10 09:07:35;;;;;;;;;;;;;;;;;;5005503;28;43159;-82
2023/04/10 09:10:01;;;;;;;;;;;;;;;;;;5020359;28;43842;-79
2023/04/10 09:12:27;;;;;;;;;;;;;;;;;;5021085;28;43078;-79
2023/04/10 09:14:53;;;;;;;;;;;;;;;;;;5023583;28;44074;-78
2023/04/10 09:17:19;;;;;;;;;;;;;;;;;;5023994;28;43167;-83
2023/04/10 09:19:45;;;;;;;;;;;;;;;;;;5024253;28;43572;-84
2023/04/10 09:22:11;;;;;;;;;;;;;;;;;;5026529;28;42903;-86
2023/04/10 09:24:39;;;;;;;;;;;;;;;;;;5021655;28;43542;-85
2023/04/10 09:27:05;;;;;;;;;;;;;;;;;;5013454;28;43643;-84
2023/04/10 09:29:31;;;;;;;;;;;;;;;;;;5022484;28;43782;-83
2023/04/10 09:31:57;;;;;;;;;;;;;;;;;;5016029;28;43864;-89
2023/04/10 09:34:23;;;;;;;;;;;;;;;;;;5022397;28;43380;-91
2023/04/10 09:36:49;;;;;;;;;;;;;;;;;;5021341;28;43083;-92
2023/04/10 09:39:14;;;;;;;;;;;;;;;;;;5020913;28;44055;-83
2023/04/10 09:41:40;;;;;;;;;;;;;;;;;;5024264;28;43111;-83
2023/04/10 09:44:06;;;;;;;;;;;;;;;;;;5005614;28;44753;-82
2023/04/10 09:46:32;;;;;;;;;;;;;;;;;;5023945;28;43136;-82
2023/04/10 09:49:03;;;;;;;;;;;;;;;;;;5001106;28;45035;-82
2023/04/10 09:51:29;;;;;;;;;;;;;;;;;;5023230;28;43069;-82
2023/04/10 09:53:55;;;;;;;;;;;;;;;;;;5024459;28;42831;-82
2023/04/10 09:56:21;;;;;;;;;;;;;;;;;;5025059;28;42827;-82
2023/04/10 09:58:47;;;;;;;;;;;;;;;;;;5023285;28;44027;-83
2023/04/10 10:01:13;;;;;;;;;;;;;;;;;;5007021;28;42989;-83
2023/04/10 10:03:39;;;;;;;;;;;;;;;;;;5006747;28;46019;-81
2023/04/10 10:06:04;;;;;;;;;;;;;;;;;;5023910;28;42937;-80
2023/04/10 10:08:30;;;;;;;;;;;;;;;;;;5006623;28;45972;-81
2023/04/10 10:10:56;;;;;;;;;;;;;;;;;;5006296;28;43083;-81
2023/04/10 10:13:22;;;;;;;;;;;;;;;;;;5024496;28;43511;-82
2023/04/10 10:15:48;;;;;;;;;;;;;;;;;;5024323;28;43251;-80
2023/04/10 10:18:14;;;;;;;;;;;;;;;;;;5023419;28;43633;-80
2023/04/10 10:20:40;;;;;;;;;;;;;;;;;;5023681;28;42980;-80
2023/04/10 10:23:07;;;;;;;;;;;;;;;;;;5024174;28;43552;-80
2023/04/10 10:25:33;;;;;;;;;;;;;;;;;;5024511;28;42831;-80
2023/04/10 10:27:59;;;;;;;;;;;;;;;;;;5023376;28;43396;-80
2023/04/10 10:30:25;;;;;;;;;;;;;;;;;;5023598;28;42905;-81
2023/04/10 10:32:51;;;;;;;;;;;;;;;;;;5024203;28;42945;-80
2023/04/10 10:35:17;;;;;;;;;;;;;;;;;;5023918;28;43045;-81
2023/04/10 10:37:44;;;;;;;;;;;;;;;;;;5022276;28;44997;-80
2023/04/10 10:40:10;;;;;;;;;;;;;;;;;;5005913;28;42881;-80
2023/04/10 10:42:36;;;;;;;;;;;;;;;;;;5023530;28;42859;-81
2023/04/10 10:45:02;;;;;;;;;;;;;;;;;;4999553;28;42975;-80
2023/04/10 10:47:28;;;;;;;;;;;;;;;;;;5014840;28;42938;-80
2023/04/10 10:49:54;;;;;;;;;;;;;;;;;;5023901;28;42914;-80
2023/04/10 10:52:20;;;;;;;;;;;;;;;;;;5026580;28;42946;-80
2023/04/10 10:54:46;;;;;;;;;;;;;;;;;;5026467;28;42913;-80
2023/04/10 10:57:11;;;;;;;;;;;;;;;;;;5026936;28;43037;-80
2023/04/10 10:59:37;;;;;;;;;;;;;;;;;;5026746;28;42996;-80
2023/04/10 11:02:03;;;;;;;;;;;;;;;;;;5026952;28;42882;-80
2023/04/10 11:04:30;;;;;;;;;;;;;;;;;;5026755;28;43042;-79
2023/04/10 11:06:55;;;;;;;;;;;;;;;;;;5036980;28;44454;-80
2023/04/10 11:09:22;;;;;;;;;;;;;;;;;;5046968;28;42957;-81
2023/04/10 11:11:48;;;;;;;;;;;;;;;;;;5046887;28;42849;-81
2023/04/10 11:14:16;;;;;;;;;;;;;;;;;;5046527;28;43009;-80
2023/04/10 11:16:42;;;;;;;;;;;;;;;;;;5046481;28;43586;-78
2023/04/10 11:19:11;;;;;;;;;;;;;;;;;;5046547;28;42849;-80
2023/04/10 11:21:37;;;;;;;;;;;;;;;;;;5046938;28;42929;-80
2023/04/10 11:24:03;;;;;;;;;;;;;;;;;;5046525;28;43138;-80
2023/04/10 11:26:29;;;;;;;;;;;;;;;;;;5046977;28;43040;-81
2023/04/10 11:28:55;;;;;;;;;;;;;;;;;;5028022;28;43020;-81
2023/04/10 11:31:21;;;;;;;;;;;;;;;;;;5027839;28;43709;-80
2023/04/10 11:33:47;;;;;;;;;;;;;;;;;;5044749;28;43043;-80
2023/04/10 11:36:13;;;;;;;;;;;;;;;;;;5046772;28;42977;-80
2023/04/10 11:38:39;;;;;;;;;;;;;;;;;;5046139;28;42861;-80
2023/04/10 11:41:05;;;;;;;;;;;;;;;;;;5045495;28;43806;-80
2023/04/10 11:43:32;;;;;;;;;;;;;;;;;;5046602;28;42936;-80
2023/04/10 11:45:58;;;;;;;;;;;;;;;;;;5045846;28;42918;-80
2023/04/10 11:48:24;;;;;;;;;;;;;;;;;;5046534;28;42814;-81
2023/04/10 11:50:50;;;;;;;;;;;;;;;;;;5045938;28;42775;-81
2023/04/10 11:53:16;;;;;;;;;;;;;;;;;;5046635;28;42798;-81
2023/04/10 11:55:42;;;;;;;;;;;;;;;;;;5046620;28;42888;-80
2023/04/10 11:58:08;;;;;;;;;;;;;;;;;;5046076;28;43040;-81
2023/04/10 12:00:33;;;;;;;;;;;;;;;;;;5027424;28;44608;-81
2023/04/10 12:02:59;;;;;;;;;;;;;;;;;;5045457;28;43074;-80
2023/04/10 12:05:25;;;;;;;;;;;;;;;;;;5027322;28;43621;-81
2023/04/10 12:07:53;;;;;;;;;;;;;;;;;;5022047;28;59718;-81
2023/04/10 12:10:20;;;;;;;;;;;;;;;;;;5005891;28;42946;-80
2023/04/10 12:12:46;;;;;;;;;;;;;;;;;;5007138;28;43095;-80
2023/04/10 12:15:12;;;;;;;;;;;;;;;;;;5006653;28;43233;-81
2023/04/10 12:17:38;;;;;;;;;;;;;;;;;;5006836;28;42946;-81
2023/04/10 12:20:04;;;;;;;;;;;;;;;;;;5018957;28;43006;-80
2023/04/10 12:22:29;;;;;;;;;;;;;;;;;;5007573;28;42989;-80
2023/04/10 12:24:56;;;;;;;;;;;;;;;;;;5006809;28;42929;-81
2023/04/10 12:27:22;;;;;;;;;;;;;;;;;;5006826;28;43025;-80
2023/04/10 12:29:48;;;;;;;;;;;;;;;;;;4999756;28;45793;-80
2023/04/10 12:32:15;;;;;;;;;;;;;;;;;;5007091;28;42957;-81
2023/04/10 12:34:40;;;;;;;;;;;;;;;;;;5000581;28;43720;-82
2023/04/10 12:37:06;;;;;;;;;;;;;;;;;;5006285;28;43057;-82
2023/04/10 12:39:32;;;;;;;;;;;;;;;;;;5005949;28;43486;-81
2023/04/10 12:41:58;;;;;;;;;;;;;;;;;;5005923;28;43015;-80
2023/04/10 12:44:24;;;;;;;;;;;;;;;;;;5005792;28;42981;-81
2023/04/10 12:46:50;;;;;;;;;;;;;;;;;;5018702;28;43120;-82
2023/04/10 12:49:17;;;;;;;;;;;;;;;;;;5018786;28;42821;-81
2023/04/10 12:51:42;;;;;;;;;;;;;;;;;;5007131;28;43159;-80
2023/04/10 12:54:09;;;;;;;;;;;;;;;;;;5025094;28;43064;-80
2023/04/10 12:56:35;;;;;;;;;;;;;;;;;;5006693;28;42979;-82
2023/04/10 12:59:01;;;;;;;;;;;;;;;;;;5024538;28;42987;-80
2023/04/10 13:01:26;;;;;;;;;;;;;;;;;;5021544;28;42940;-81
2023/04/10 13:03:52;;;;;;;;;;;;;;;;;;5024867;28;42989;-81
2023/04/10 13:06:18;;;;;;;;;;;;;;;;;;5027409;28;42844;-80
2023/04/10 13:08:45;;;;;;;;;;;;;;;;;;5044858;28;42769;-82
2023/04/10 13:11:11;;;;;;;;;;;;;;;;;;5044838;28;42931;-80
2023/04/10 13:13:37;;;;;;;;;;;;;;;;;;5034408;28;43495;-81
2023/04/10 13:16:03;;;;;;;;;;;;;;;;;;5040731;28;42709;-81
2023/04/10 13:18:29;;;;;;;;;;;;;;;;;;5044233;28;42853;-81
2023/04/10 13:20:55;;;;;;;;;;;;;;;;;;5041347;28;43610;-82
2023/04/10 13:23:20;;;;;;;;;;;;;;;;;;5033572;28;42948;-79
2023/04/10 13:25:46;;;;;;;;;;;;;;;;;;5044191;28;42928;-82
2023/04/10 13:28:14;;;;;;;;;;;;;;;;;;5023815;28;43050;-82
2023/04/10 13:30:40;;;;;;;;;;;;;;;;;;5025129;28;42906;-80
2023/04/10 13:33:06;;;;;;;;;;;;;;;;;;5044526;28;43525;-80
2023/04/10 13:35:32;;;;;;;;;;;;;;;;;;5043774;28;42979;-81
2023/04/10 13:37:58;;;;;;;;;;;;;;;;;;5044096;28;42924;-81
2023/04/10 13:40:24;;;;;;;;;;;;;;;;;;5043612;28;42923;-80
2023/04/10 13:42:49;;;;;;;;;;;;;;;;;;5044490;28;42852;-80
2023/04/10 13:45:15;;;;;;;;;;;;;;;;;;5043425;28;42872;-81
2023/04/10 13:47:41;;;;;;;;;;;;;;;;;;5044558;28;43653;-81
2023/04/10 13:50:07;;;;;;;;;;;;;;;;;;5041193;28;43009;-83
2023/04/10 13:52:33;;;;;;;;;;;;;;;;;;5034809;28;43098;-82
2023/04/10 13:54:59;;;;;;;;;;;;;;;;;;5044493;28;43132;-83
2023/04/10 13:57:25;;;;;;;;;;;;;;;;;;5030870;28;42963;-84
2023/04/10 13:59:51;;;;;;;;;;;;;;;;;;5031225;28;43012;-82
2023/04/10 14:02:17;;;;;;;;;;;;;;;;;;5031593;28;42976;-83
2023/04/10 14:04:45;;;;;;;;;;;;;;;;;;5043529;28;43107;-83
2023/04/10 14:07:10;;;;;;;;;;;;;;;;;;5033010;28;43545;-82
2023/04/10 14:09:36;;;;;;;;;;;;;;;;;;5017772;28;42924;-82
2023/04/10 14:12:02;;;;;;;;;;;;;;;;;;4999716;28;44708;-81
2023/04/10 14:14:28;;;;;;;;;;;;;;;;;;5011525;28;42980;-82
2023/04/10 14:16:54;;;;;;;;;;;;;;;;;;5011564;28;42994;-81
2023/04/10 14:19:20;;;;;;;;;;;;;;;;;;5004722;28;42807;-82
2023/04/10 14:21:46;;;;;;;;;;;;;;;;;;5004795;28;43336;-82
2023/04/10 14:24:12;;;;;;;;;;;;;;;;;;5004610;28;42942;-83
2023/04/10 14:26:38;;;;;;;;;;;;;;;;;;5008172;28;42996;-80
2023/04/10 14:29:06;;;;;;;;;;;;;;;;;;5020639;28;43049;-82
2023/04/10 14:31:32;;;;;;;;;;;;;;;;;;5008109;28;44003;-81
2023/04/10 14:33:58;;;;;;;;;;;;;;;;;;5007794;28;42926;-80
2023/04/10 14:36:24;;;;;;;;;;;;;;;;;;5007881;28;43444;-82
2023/04/10 14:38:50;;;;;;;;;;;;;;;;;;5005051;28;43222;-80
2023/04/10 14:41:16;;;;;;;;;;;;;;;;;;5017919;28;43773;-80
2023/04/10 14:43:42;;;;;;;;;;;;;;;;;;5007759;28;42946;-80
2023/04/10 14:46:08;;;;;;;;;;;;;;;;;;5007477;28;42923;-81
2023/04/10 14:48:34;;;;;;;;;;;;;;;;;;5008151;28;42927;-80
2023/04/10 14:51:00;;;;;;;;;;;;;;;;;;5017190;28;42999;-82
2023/04/10 14:53:26;;;;;;;;;;;;;;;;;;5009262;28;43140;-79
2023/04/10 14:55:51;;;;;;;;;;;;;;;;;;5018368;28;42922;-80
2023/04/10 14:58:17;;;;;;;;;;;;;;;;;;5002716;28;43006;-79
2023/04/10 15:00:43;;;;;;;;;;;;;;;;;;5008128;28;43663;-79
2023/04/10 15:03:09;;;;;;;;;;;;;;;;;;5014853;28;42926;-80
2023/04/10 15:05:35;;;;;;;;;;;;;;;;;;5007915;28;43601;-80
2023/04/10 15:08:01;;;;;;;;;;;;;;;;;;5030801;28;42935;-80
2023/04/10 15:10:27;;;;;;;;;;;;;;;;;;5046790;28;42888;-80
2023/04/10 15:12:53;;;;;;;;;;;;;;;;;;5046824;28;43025;-79
2023/04/10 15:15:19;;;;;;;;;;;;;;;;;;5045758;28;42865;-81
2023/04/10 15:17:45;;;;;;;;;;;;;;;;;;5046260;28;43003;-80
2023/04/10 15:20:11;;;;;;;;;;;;;;;;;;5044967;28;43522;-81
2023/04/10 15:22:37;;;;;;;;;;;;;;;;;;5041233;28;42809;-81
2023/04/10 15:25:03;;;;;;;;;;;;;;;;;;5039943;28;42940;-81
2023/04/10 15:27:29;;;;;;;;;;;;;;;;;;5035222;28;42888;-81
2023/04/10 15:29:55;;;;;;;;;;;;;;;;;;5045932;28;43545;-81
2023/04/10 15:32:21;;;;;;;;;;;;;;;;;;5047110;28;42849;-80
2023/04/10 15:34:47;;;;;;;;;;;;;;;;;;5045753;28;43267;-80
2023/04/10 15:37:13;;;;;;;;;;;;;;;;;;5018660;28;42818;-80
2023/04/10 15:39:38;;;;;;;;;;;;;;;;;;5042837;28;43591;-81
2023/04/10 15:42:04;;;;;;;;;;;;;;;;;;5046311;28;42921;-80
2023/04/10 15:44:30;;;;;;;;;;;;;;;;;;5027373;28;44625;-81
2023/04/10 15:46:56;;;;;;;;;;;;;;;;;;5046180;28;42942;-81
2023/04/10 15:49:22;;;;;;;;;;;;;;;;;;5044072;28;42889;-79
2023/04/10 15:51:48;;;;;;;;;;;;;;;;;;5036217;28;43092;-81
2023/04/10 15:54:14;;;;;;;;;;;;;;;;;;5046013;28;43004;-82
2023/04/10 15:56:40;;;;;;;;;;;;;;;;;;5027897;28;43056;-79
2023/04/10 15:59:06;;;;;;;;;;;;;;;;;;5044971;28;43577;-80
2023/04/10 16:01:31;;;;;;;;;;;;;;;;;;5022176;28;42997;-80
2023/04/10 16:03:57;;;;;;;;;;;;;;;;;;5026120;28;44122;-80
2023/04/10 16:06:24;;;;;;;;;;;;;;;;;;5039520;28;43251;-80
2023/04/10 16:08:50;;;;;;;;;;;;;;;;;;5039073;28;43079;-80
2023/04/10 16:11:16;;;;;;;;;;;;;;;;;;5021122;28;42941;-81
2023/04/10 16:13:42;;;;;;;;;;;;;;;;;;5039560;28;43745;-80
2023/04/10 16:16:08;;;;;;;;;;;;;;;;;;5046033;28;43059;-80
2023/04/10 16:18:34;;;;;;;;;;;;;;;;;;5043797;28;42969;-81
2023/04/10 16:21:00;;;;;;;;;;;;;;;;;;5045033;28;42943;-80
2023/04/10 16:23:26;;;;;;;;;;;;;;;;;;5045165;28;42918;-80
2023/04/10 16:25:52;;;;;;;;;;;;;;;;;;5045062;28;42860;-80
2023/04/10 16:28:18;;;;;;;;;;;;;;;;;;5045350;28;43445;-80
2023/04/10 16:30:43;;;;;;;;;;;;;;;;;;5033767;28;42984;-80
2023/04/10 16:33:09;;;;;;;;;;;;;;;;;;5045122;28;42924;-80
2023/04/10 16:35:35;;;;;;;;;;;;;;;;;;5018327;28;43160;-79
2023/04/10 16:38:01;;;;;;;;;;;;;;;;;;5024425;28;44500;-81